Time;durP1;ratioP1;P1;durP2;ratioP2;P2;SDS_P1;SDS_P2;PMS_P1;PMS_P2;Temp;Humidity;BMP_temperature;BMP_pressure;BME280_temperature;BME280_humidity;BME280_pressure;Samples;Min_cycle;Max_cycle;Signal;HPM_P1;HPM_P2
2023/01/05 00:02:08;;;;;;;0.28;0.28;;;;;;;11.04;76.55;101103.78;5129574;28;20046;-83
2023/01/05 00:04:39;;;;;;;0.73;0.73;;;;;;;11.09;76.17;101108.91;5127404;28;20141;-83
2023/01/05 00:07:09;;;;;;;0.45;0.45;;;;;;;11.09;76.78;101099.25;5112348;28;20035;-83
2023/01/05 00:09:40;;;;;;;1.58;1.48;;;;;;;11.05;76.97;101099.38;5117535;28;20739;-82
2023/01/05 00:23:14;;;;;;;0.30;0.30;;;;;;;11.01;76.47;101125.72;5141027;28;20050;-82
2023/01/05 00:25:45;;;;;;;0.20;0.20;;;;;;;11.01;76.89;101133.59;5155842;28;20041;-83
2023/01/05 00:28:16;;;;;;;1.25;1.15;;;;;;;11.00;76.70;101126.63;5126340;28;20290;-82
2023/01/05 00:30:46;;;;;;;0.73;0.73;;;;;;;10.98;76.73;101123.16;5133989;28;20034;-82
2023/01/05 00:33:17;;;;;;;0.30;0.30;;;;;;;11.03;76.17;101123.03;5129967;28;20046;-82
2023/01/05 00:35:47;;;;;;;0.63;0.63;;;;;;;11.06;75.97;101130.88;5150049;28;20109;-82
2023/01/05 00:38:18;;;;;;;0.45;0.45;;;;;;;11.05;76.20;101133.50;5152845;28;20057;-82
2023/01/05 00:40:48;;;;;;;0.40;0.40;;;;;;;11.01;76.50;101132.72;5136648;28;20125;-82
2023/01/05 00:43:19;;;;;;;0.95;0.93;;;;;;;10.98;76.75;101131.03;5151195;28;20038;-82
2023/01/05 00:45:50;;;;;;;1.65;1.20;;;;;;;10.96;76.74;101124.09;5153994;28;20038;-82
2023/01/05 00:48:20;;;;;;;1.85;1.58;;;;;;;10.96;77.36;101117.06;5148157;28;20035;-83
2023/01/05 00:50:51;;;;;;;0.20;0.20;;;;;;;10.89;77.75;101118.09;5153546;28;20034;-81
2023/01/05 00:53:22;;;;;;;0.22;0.22;;;;;;;10.90;77.85;101113.72;5129839;28;20046;-82
2023/01/05 00:55:59;;;;;;;0.52;0.50;;;;;;;10.84;77.83;101125.22;5125381;28;20466;-82
2023/01/05 00:58:29;;;;;;;1.00;1.00;;;;;;;10.88;78.27;101126.88;5138381;28;20042;-82
2023/01/05 01:00:59;;;;;;;0.40;0.40;;;;;;;10.93;78.06;101130.28;5128480;28;20594;-81
2023/01/05 01:03:30;;;;;;;1.88;1.58;;;;;;;10.91;78.36;101131.22;5138942;28;20075;-82
2023/01/05 01:06:01;;;;;;;1.17;1.08;;;;;;;10.90;78.15;101135.59;5144239;28;20138;-82
2023/01/05 01:08:31;;;;;;;0.20;0.20;;;;;;;10.98;78.30;101135.44;5144817;28;20043;-82
2023/01/05 01:11:06;;;;;;;0.68;0.68;;;;;;;10.92;78.20;101128.53;5130992;28;20038;-81
2023/01/05 01:13:40;;;;;;;0.73;0.73;;;;;;;10.86;78.54;101139.19;5139158;28;20111;-83
2023/01/05 01:16:13;;;;;;;1.92;1.15;;;;;;;10.85;78.54;101133.06;5144518;28;20095;-82
2023/01/05 01:18:43;;;;;;;2.20;1.45;;;;;;;10.88;78.44;101131.28;5141305;28;20043;-82
2023/01/05 01:21:14;;;;;;;3.30;3.03;;;;;;;10.86;78.93;101141.81;5124017;28;20517;-82
2023/01/05 01:23:45;;;;;;;3.95;0.63;;;;;;;10.82;78.71;101148.00;5131963;28;20027;-83
2023/01/05 01:26:16;;;;;;;0.93;0.90;;;;;;;10.88;78.70;101141.75;5146796;28;20035;-82
2023/01/05 01:28:47;;;;;;;0.20;0.20;;;;;;;10.81;78.98;101148.91;5125053;28;20051;-82
2023/01/05 01:31:17;;;;;;;3.80;1.48;;;;;;;10.85;78.92;101147.94;5150131;28;20094;-82
2023/01/05 01:33:48;;;;;;;6.82;2.22;;;;;;;10.78;79.08;101136.72;5145600;28;20054;-83
2023/01/05 01:36:19;;;;;;;1.45;0.93;;;;;;;10.77;79.12;101144.63;5145030;28;20073;-83
2023/01/05 01:38:49;;;;;;;0.50;0.50;;;;;;;10.86;79.00;101144.44;5154450;28;20034;-82
2023/01/05 01:41:20;;;;;;;0.40;0.40;;;;;;;10.81;79.08;101147.16;5138977;28;20533;-82
2023/01/05 01:43:55;;;;;;;1.75;1.10;;;;;;;10.81;79.51;101147.16;5143125;28;20039;-82
2023/01/05 01:46:27;;;;;;;0.73;0.73;;;;;;;10.74;79.69;101160.44;5140068;28;20027;-83
2023/01/05 01:49:07;;;;;;;0.47;0.47;;;;;;;10.84;78.82;101175.94;5137536;28;20579;-83
2023/01/05 01:51:43;;;;;;;0.73;0.73;;;;;;;10.78;79.10;101173.47;5141826;28;20034;-83
2023/01/05 01:54:16;;;;;;;2.15;1.95;;;;;;;10.80;79.35;101173.41;5125207;28;20050;-83
2023/01/05 01:56:53;;;;;;;4.28;1.08;;;;;;;10.77;79.11;101171.72;5120390;28;20034;-83
2023/01/05 01:59:24;;;;;;;0.30;0.30;;;;;;;10.77;79.23;101181.38;5121746;28;20197;-82
2023/01/05 02:02:00;;;;;;;0.20;0.20;;;;;;;10.86;79.32;101175.94;5138190;28;20035;-82
2023/01/05 02:04:32;;;;;;;1.95;0.73;;;;;;;10.79;79.17;101175.19;5135142;28;20039;-82
2023/01/05 02:07:04;;;;;;;0.95;0.82;;;;;;;10.79;79.49;101169.06;5133972;28;20039;-82
2023/01/05 02:09:34;;;;;;;5.38;0.95;;;;;;;10.82;79.21;101164.63;5132897;28;20125;-82
2023/01/05 02:12:31;;;;;;;0.30;0.30;;;;;;;10.81;78.91;101170.78;5116867;28;20046;-83
2023/01/05 02:15:39;;;;;;;0.30;0.30;;;;;;;10.74;79.31;101171.81;5131514;28;20108;-83
2023/01/05 02:18:58;;;;;;;0.63;0.63;;;;;;;10.77;79.00;101182.22;5079523;28;20430;-83
2023/01/05 02:21:39;;;;;;;1.27;0.90;;;;;;;10.81;78.87;101183.03;5125290;28;20042;-83
2023/01/05 02:24:39;;;;;;;6.90;1.83;;;;;;;10.68;78.95;101172.78;5140776;28;20043;-83
2023/01/05 02:27:31;;;;;;;0.50;0.50;;;;;;;10.66;78.79;101184.22;5122882;28;20038;-83
2023/01/05 02:30:40;;;;;;;0.32;0.32;;;;;;;10.65;78.73;101188.59;5131115;28;20039;-83
2023/01/05 02:33:31;;;;;;;0.30;0.30;;;;;;;10.70;78.45;101189.34;5108792;28;20090;-83
2023/01/05 02:36:27;;;;;;;7.00;1.67;;;;;;;10.69;78.15;101190.28;5149057;28;20055;-83
2023/01/05 02:39:13;;;;;;;2.22;1.20;;;;;;;10.80;77.99;101197.03;5140849;28;20063;-83
2023/01/05 02:41:56;;;;;;;0.47;0.47;;;;;;;10.66;78.26;101190.31;5139492;28;20031;-82
2023/01/05 02:44:28;;;;;;;;;;;;;;;10.63;78.15;101187.75;5133058;28;20035;-82
2023/01/05 02:47:26;;;;;;;0.73;0.73;;;;;;;10.59;78.38;101188.72;5132590;28;19914;-83
2023/01/05 02:50:01;;;;;;;2.35;2.20;;;;;;;10.58;78.42;101192.22;5110355;28;20052;-83
2023/01/05 02:52:41;;;;;;;0.82;0.82;;;;;;;10.64;78.30;101193.88;5131802;28;20071;-83
2023/01/05 02:55:19;;;;;;;2.20;1.38;;;;;;;10.57;78.24;101185.25;5137701;28;20837;-83
2023/01/05 02:57:58;;;;;;;0.70;0.70;;;;;;;10.55;78.95;101184.41;5132839;28;20059;-83
2023/01/05 03:00:40;;;;;;;0.63;0.63;;;;;;;10.59;78.37;101187.84;5133583;28;20043;-83
2023/01/05 03:03:19;;;;;;;1.55;0.73;;;;;;;10.58;78.83;101192.22;5114247;28;20047;-83
2023/01/05 03:06:08;;;;;;;0.73;0.73;;;;;;;10.57;79.00;101193.13;5136618;28;20066;-83
2023/01/05 03:08:53;;;;;;;1.00;0.90;;;;;;;10.55;78.67;101192.28;5143681;28;20039;-83
2023/01/05 03:14:38;;;;;;;0.30;0.30;;;;;;;10.56;78.95;101188.75;5144057;28;20039;-83
2023/01/05 03:17:14;;;;;;;0.40;0.40;;;;;;;10.51;78.99;101191.47;5145236;28;20037;-83
2023/01/05 03:19:47;;;;;;;1.33;1.25;;;;;;;10.50;79.14;101188.88;5162678;28;20027;-83
2023/01/05 03:37:33;;;;;;;0.20;0.20;;;;;;;10.51;79.51;101201.13;5142701;28;20604;-83
2023/01/05 03:40:11;;;;;;;0.40;0.40;;;;;;;10.50;79.27;101199.38;5131586;28;20217;-83
2023/01/05 03:42:42;;;;;;;0.30;0.30;;;;;;;10.50;79.57;101199.38;5139446;28;20050;-83
2023/01/05 03:45:15;;;;;;;0.50;0.50;;;;;;;10.52;79.11;101202.84;5140187;28;20035;-83
2023/01/05 03:47:45;;;;;;;0.60;0.60;;;;;;;10.47;79.31;101200.31;5148940;28;20055;-83
2023/01/05 03:50:16;;;;;;;4.95;2.50;;;;;;;10.52;78.97;101192.34;5142808;28;20599;-83
2023/01/05 03:52:46;;;;;;;0.70;0.70;;;;;;;10.45;79.14;101203.88;5136295;28;20117;-83
2023/01/05 03:55:17;;;;;;;0.43;0.43;;;;;;;10.46;79.15;101202.94;5139505;28;20614;-83
2023/01/05 03:57:47;;;;;;;4.63;1.70;;;;;;;10.48;79.08;101207.28;5145997;28;20039;-83
2023/01/05 04:00:19;;;;;;;0.60;0.60;;;;;;;10.54;79.24;101206.28;5163163;28;20030;-83
2023/01/05 04:02:50;;;;;;;1.58;1.48;;;;;;;10.47;80.03;101215.19;5125289;28;20042;-83
2023/01/05 04:05:21;;;;;;;0.30;0.30;;;;;;;10.44;80.19;101215.25;5133299;28;20038;-83
2023/01/05 04:07:52;;;;;;;2.60;2.40;;;;;;;10.46;80.08;101209.06;5140520;28;20046;-83
2023/01/05 04:10:22;;;;;;;1.35;1.25;;;;;;;10.49;79.63;101219.53;5134821;28;20038;-83
2023/01/05 04:12:53;;;;;;;0.60;0.60;;;;;;;10.49;79.98;101216.03;5139184;28;20442;-83
2023/01/05 04:15:24;;;;;;;0.30;0.30;;;;;;;10.45;79.76;101211.75;5134829;28;20042;-83
2023/01/05 04:17:54;;;;;;;1.17;1.08;;;;;;;10.44;79.93;101210.00;5123517;28;20050;-83
2023/01/05 04:20:25;;;;;;;1.38;1.27;;;;;;;10.43;79.96;101213.53;5131784;28;20077;-84
2023/01/05 04:22:55;;;;;;;1.48;0.65;;;;;;;10.51;79.22;101212.47;5136124;28;20051;-83
2023/01/05 04:25:26;;;;;;;1.67;0.88;;;;;;;10.55;79.23;101210.66;5141923;28;20035;-82
2023/01/05 04:27:56;;;;;;;1.10;0.85;;;;;;;10.53;79.78;101212.47;5139742;28;20058;-83
2023/01/05 04:30:27;;;;;;;2.55;0.98;;;;;;;10.43;81.49;101218.75;5126475;28;20046;-84
2023/01/05 04:32:57;;;;;;;0.52;0.52;;;;;;;10.47;81.75;101223.03;5129191;28;20118;-84
2023/01/05 04:35:28;;;;;;;1.00;0.80;;;;;;;10.44;81.98;101217.88;5158596;28;20035;-86
2023/01/05 04:37:58;;;;;;;0.20;0.20;;;;;;;10.34;82.42;101215.38;5136203;28;20058;-85
2023/01/05 04:40:29;;;;;;;1.00;0.98;;;;;;;10.31;82.71;101225.06;5128908;28;20115;-84
2023/01/05 04:43:00;;;;;;;0.68;0.68;;;;;;;10.36;82.63;101228.47;5131310;28;20039;-84
2023/01/05 04:45:30;;;;;;;1.17;0.85;;;;;;;10.36;82.91;101236.31;5120375;28;20736;-85
2023/01/05 04:48:01;;;;;;;0.32;0.32;;;;;;;10.37;82.46;101244.19;5113992;28;20052;-85
2023/01/05 04:50:31;;;;;;;6.25;1.27;;;;;;;10.36;82.28;101238.94;5132575;28;20057;-84
2023/01/05 04:53:04;;;;;;;7.38;2.60;;;;;;;10.39;82.26;101244.19;5118005;28;20117;-84
2023/01/05 04:55:35;;;;;;;0.55;0.55;;;;;;;10.36;82.46;101237.22;5131845;28;20039;-84
2023/01/05 04:58:06;;;;;;;0.77;0.75;;;;;;;10.34;82.82;101239.00;5115839;28;20034;-84
2023/01/05 05:00:37;;;;;;;0.65;0.65;;;;;;;10.36;82.54;101234.59;5135709;28;20038;-84
2023/01/05 05:03:07;;;;;;;0.65;0.52;;;;;;;10.33;82.49;101239.03;5119641;28;20169;-83
2023/01/05 05:05:38;;;;;;;0.28;0.28;;;;;;;10.35;82.47;101237.22;5134755;28;20023;-83
2023/01/05 05:08:08;;;;;;;2.10;1.35;;;;;;;10.29;82.77;101230.31;5134855;28;20058;-84
2023/01/05 05:10:39;;;;;;;1.05;0.88;;;;;;;10.35;82.57;101238.09;5134506;28;20035;-83
2023/01/05 05:13:09;;;;;;;5.53;1.95;;;;;;;10.37;82.20;101236.31;5127803;28;20765;-83
2023/01/05 05:15:42;;;;;;;0.30;0.30;;;;;;;10.30;82.60;101239.91;5144388;28;20031;-83
2023/01/05 05:18:13;;;;;;;1.35;0.40;;;;;;;10.31;82.32;101238.19;5128781;28;20046;-85
2023/01/05 05:20:47;;;;;;;0.40;0.40;;;;;;;10.35;82.32;101237.22;5137126;28;20056;-83
2023/01/05 05:23:19;;;;;;;1.75;0.73;;;;;;;10.31;82.00;101235.56;5124180;28;20116;-84
2023/01/05 05:25:50;;;;;;;2.22;2.08;;;;;;;10.29;82.00;101239.97;5138728;28;20027;-83
2023/01/05 05:28:23;;;;;;;0.30;0.30;;;;;;;10.24;82.25;101229.53;5126955;28;20379;-83
2023/01/05 05:30:55;;;;;;;1.15;1.10;;;;;;;10.28;81.92;101246.09;5148224;28;20058;-82
2023/01/05 05:33:25;;;;;;;0.50;0.50;;;;;;;10.22;82.26;101253.19;5136079;28;20674;-83
2023/01/05 05:35:56;;;;;;;0.47;0.47;;;;;;;10.29;81.96;101242.59;5131088;28;20034;-83
2023/01/05 05:38:26;;;;;;;0.50;0.50;;;;;;;10.32;82.32;101253.88;5136948;28;20032;-83
2023/01/05 05:40:57;;;;;;;0.70;0.68;;;;;;;10.23;82.40;101252.28;5141767;28;20090;-83
2023/01/05 05:43:27;;;;;;;0.35;0.35;;;;;;;10.30;82.50;101255.66;5129611;28;20043;-82
2023/01/05 05:45:58;;;;;;;0.40;0.40;;;;;;;10.23;82.83;101254.03;5133004;28;20059;-82
2023/01/05 05:48:28;;;;;;;2.28;1.73;;;;;;;10.24;82.97;101255.78;5129573;28;20069;-81
2023/01/05 05:50:59;;;;;;;0.55;0.55;;;;;;;10.20;82.67;101259.34;5129485;28;20042;-82
2023/01/05 05:53:29;;;;;;;0.40;0.40;;;;;;;10.24;82.66;101255.78;5142816;28;20121;-82
2023/01/05 05:56:00;;;;;;;4.85;1.13;;;;;;;10.28;82.96;101262.72;5141158;28;20035;-82
2023/01/05 05:58:30;;;;;;;1.27;1.17;;;;;;;10.25;82.76;101273.25;5138654;28;20870;-82
2023/01/05 06:01:01;;;;;;;0.20;0.20;;;;;;;10.26;82.48;101272.34;5142737;28;20133;-82
2023/01/05 06:03:31;;;;;;;0.77;0.77;;;;;;;10.24;82.62;101282.00;5129607;28;20058;-82
2023/01/05 06:06:02;;;;;;;1.17;0.65;;;;;;;10.25;82.91;101288.97;5159571;28;20098;-83
2023/01/05 06:08:33;;;;;;;1.88;1.05;;;;;;;10.20;82.75;101293.44;5130080;28;20055;-82
2023/01/05 06:11:04;;;;;;;1.17;1.10;;;;;;;10.27;82.09;101292.44;5149123;28;20045;-83
2023/01/05 06:13:34;;;;;;;0.93;0.90;;;;;;;10.23;82.81;101296.00;5142584;28;20530;-82
2023/01/05 06:16:05;;;;;;;0.50;0.50;;;;;;;10.25;82.46;101299.47;5131450;28;20035;-82
2023/01/05 06:18:36;;;;;;;0.40;0.40;;;;;;;10.34;82.03;101304.56;5132781;28;20039;-82
2023/01/05 06:21:07;;;;;;;0.52;0.52;;;;;;;10.22;82.13;101299.50;5140190;28;20060;-82
2023/01/05 06:23:37;;;;;;;0.60;0.60;;;;;;;10.27;82.30;101309.94;5134040;28;20036;-82
2023/01/05 06:26:08;;;;;;;0.50;0.50;;;;;;;10.30;82.29;101313.38;5140378;28;20639;-82
2023/01/05 06:28:38;;;;;;;1.70;1.60;;;;;;;10.30;82.46;101310.75;5117519;28;20042;-83
2023/01/05 06:31:09;;;;;;;0.60;0.60;;;;;;;10.27;82.70;101317.78;5139246;28;20086;-82
2023/01/05 06:33:39;;;;;;;0.68;0.68;;;;;;;10.25;82.75;101309.97;5137004;28;20156;-82
2023/01/05 06:36:10;;;;;;;0.60;0.57;;;;;;;10.27;82.47;101323.91;5129713;28;20026;-82
2023/01/05 06:38:41;;;;;;;0.20;0.20;;;;;;;10.29;82.16;101327.38;5121345;28;20117;-83
2023/01/05 06:41:14;;;;;;;0.65;0.65;;;;;;;10.32;82.33;101322.06;5126921;28;20026;-83
2023/01/05 06:43:45;;;;;;;0.22;0.22;;;;;;;10.34;82.14;101333.41;5130159;28;20050;-82
2023/01/05 06:46:15;;;;;;;1.00;1.00;;;;;;;10.29;82.18;101334.38;5142372;28;20030;-83
2023/01/05 06:48:46;;;;;;;1.90;1.65;;;;;;;10.28;82.11;101330.91;5144162;28;20045;-82
2023/01/05 06:51:17;;;;;;;0.32;0.32;;;;;;;10.28;82.05;101336.16;5129347;28;20049;-83
2023/01/05 06:53:47;;;;;;;0.95;0.95;;;;;;;10.25;82.11;101330.94;5165711;28;20026;-83
2023/01/05 06:56:18;;;;;;;0.75;0.75;;;;;;;10.21;82.45;101338.00;5140566;28;20038;-83
2023/01/05 06:58:48;;;;;;;1.30;1.27;;;;;;;10.23;81.92;101337.97;5140723;28;20042;-82
2023/01/05 07:01:19;;;;;;;1.40;1.33;;;;;;;10.29;81.83;101331.75;5125413;28;20054;-82
2023/01/05 07:03:49;;;;;;;0.25;0.25;;;;;;;10.29;81.60;101342.25;5130358;28;20045;-82
2023/01/05 07:06:20;;;;;;;0.57;0.57;;;;;;;10.30;81.33;101343.97;5154972;28;20023;-82
2023/01/05 07:08:50;;;;;;;1.08;1.05;;;;;;;10.30;81.87;101344.84;5156582;28;20071;-83
2023/01/05 07:11:21;;;;;;;1.20;1.02;;;;;;;10.31;81.35;101343.09;5126314;28;20055;-82
2023/01/05 07:13:52;;;;;;;0.95;0.95;;;;;;;10.30;81.56;101339.59;5125936;28;20047;-82
2023/01/05 07:16:22;;;;;;;0.55;0.55;;;;;;;10.32;81.37;101353.56;5149492;28;20537;-82
2023/01/05 07:18:53;;;;;;;0.90;0.90;;;;;;;10.31;81.42;101357.06;5138313;28;20047;-82
2023/01/05 07:21:23;;;;;;;0.63;0.63;;;;;;;10.37;80.89;101361.38;5131932;28;20229;-82
2023/01/05 07:23:54;;;;;;;1.58;1.48;;;;;;;10.33;81.23;101363.16;5119608;28;20061;-82
2023/01/05 07:26:24;;;;;;;9.65;0.63;;;;;;;10.34;81.23;101364.00;5135919;28;20031;-82
2023/01/05 07:28:55;;;;;;;2.50;1.85;;;;;;;10.28;81.12;101367.63;5159793;28;20642;-82
2023/01/05 07:31:25;;;;;;;4.85;2.22;;;;;;;10.32;81.28;101363.19;5149248;28;20114;-82
2023/01/05 07:33:56;;;;;;;2.33;1.15;;;;;;;10.33;81.37;101362.31;5132239;28;20069;-82
2023/01/05 07:36:26;;;;;;;1.55;0.55;;;;;;;10.27;81.03;101360.63;5141757;28;20033;-82
2023/01/05 07:38:57;;;;;;;2.72;1.95;;;;;;;10.27;81.07;101359.75;5127455;28;20034;-82
2023/01/05 07:41:27;;;;;;;0.95;0.95;;;;;;;10.28;81.40;101367.63;5138572;28;20037;-82
2023/01/05 07:46:58;;;;;;;3.08;1.50;;;;;;;10.34;80.40;101359.66;5142937;28;20069;-83
2023/01/05 07:49:32;;;;;;;0.70;0.70;;;;;;;10.32;80.72;101369.28;5126008;28;20038;-82
2023/01/05 07:52:03;;;;;;;0.80;0.80;;;;;;;10.32;80.08;101369.28;5125877;28;20554;-82
2023/01/05 07:54:33;;;;;;;0.30;0.30;;;;;;;10.32;80.47;101381.56;5138216;28;20489;-83
2023/01/05 07:57:04;;;;;;;0.50;0.50;;;;;;;10.36;80.52;101375.34;5137439;28;20027;-83
2023/01/05 07:59:34;;;;;;;7.13;1.73;;;;;;;10.28;80.83;101383.38;5135841;28;20058;-83
2023/01/05 08:02:05;;;;;;;10.52;3.55;;;;;;;10.24;80.65;101385.16;5122491;28;20674;-82
2023/01/05 08:04:35;;;;;;;1.25;1.15;;;;;;;10.29;80.59;101387.69;5117544;28;20027;-83
2023/01/05 08:07:10;;;;;;;2.58;1.38;;;;;;;10.37;80.54;101393.72;5119182;28;20066;-83
2023/01/05 08:12:30;;;;;;;0.40;0.40;;;;;;;10.35;80.76;101408.59;5154052;28;20111;-83
2023/01/05 08:15:01;;;;;;;1.73;1.60;;;;;;;10.33;80.50;101402.50;5124935;28;20130;-82
2023/01/05 08:17:33;;;;;;;1.45;1.23;;;;;;;10.37;80.18;101414.69;5116234;28;20039;-82
2023/01/05 08:20:04;;;;;;;8.70;3.40;;;;;;;10.33;80.62;101417.41;5133940;28;20267;-82
2023/01/05 08:22:35;;;;;;;0.38;0.38;;;;;;;10.24;81.02;101413.13;5115918;28;20902;-82
2023/01/05 08:25:06;;;;;;;3.33;1.40;;;;;;;10.29;80.85;101415.69;5126604;28;20028;-82
2023/01/05 08:27:37;;;;;;;2.17;1.00;;;;;;;10.32;80.98;101426.16;5125762;28;20065;-82
2023/01/05 08:30:11;;;;;;;1.08;0.95;;;;;;;10.38;80.43;101419.06;5113639;28;20045;-82
2023/01/05 08:32:42;;;;;;;16.75;1.60;;;;;;;10.33;80.47;101420.88;5118686;28;20039;-82
2023/01/05 08:35:12;;;;;;;1.42;1.35;;;;;;;10.34;80.15;101419.97;5122441;28;20041;-82
2023/01/05 08:37:44;;;;;;;0.93;0.85;;;;;;;10.34;79.84;101419.97;5136237;28;20073;-82
2023/01/05 08:40:17;;;;;;;0.40;0.40;;;;;;;10.38;79.66;101420.84;5138895;28;20042;-82
2023/01/05 08:42:48;;;;;;;0.65;0.65;;;;;;;10.42;79.75;101419.03;5141353;28;20054;-82
2023/01/05 08:45:21;;;;;;;9.10;2.40;;;;;;;10.41;79.43;101425.16;5149140;28;20034;-82
2023/01/05 08:47:51;;;;;;;1.33;1.23;;;;;;;10.36;79.64;101423.47;5129040;28;20092;-82
2023/01/05 08:50:22;;;;;;;0.20;0.20;;;;;;;10.38;79.48;101426.94;5131339;28;20553;-82
2023/01/05 08:52:52;;;;;;;0.85;0.85;;;;;;;10.40;80.02;101434.81;5115811;28;20058;-82
2023/01/05 08:55:23;;;;;;;3.38;2.72;;;;;;;10.39;80.12;101441.78;5125724;28;20069;-81
2023/01/05 08:57:55;;;;;;;1.48;1.38;;;;;;;10.44;79.87;101446.13;5149226;28;20031;-83
2023/01/05 09:00:25;;;;;;;1.30;1.10;;;;;;;10.41;80.03;101438.28;5141011;28;20407;-82
2023/01/05 09:02:58;;;;;;;6.75;2.53;;;;;;;10.39;79.77;101438.31;5129030;28;20035;-82
2023/01/05 09:05:29;;;;;;;1.35;1.27;;;;;;;10.42;79.50;101440.03;5143446;28;20133;-83
2023/01/05 09:07:59;;;;;;;0.45;0.45;;;;;;;10.41;79.56;101438.28;5128858;28;20078;-83
2023/01/05 09:10:30;;;;;;;9.43;1.55;;;;;;;10.42;79.69;101443.50;5119537;28;20114;-83
2023/01/05 09:13:00;;;;;;;2.80;1.08;;;;;;;10.43;79.44;101447.00;5119365;28;20049;-83
2023/01/05 09:15:31;;;;;;;2.78;2.53;;;;;;;10.46;79.45;101454.81;5134305;28;20059;-83
2023/01/05 09:18:04;;;;;;;6.63;2.00;;;;;;;10.48;79.33;101459.16;5134466;28;20039;-83
2023/01/05 09:20:34;;;;;;;0.32;0.32;;;;;;;10.53;79.63;101461.72;5134199;28;20110;-83
2023/01/05 09:23:05;;;;;;;2.13;1.45;;;;;;;10.53;79.13;101461.72;5130799;28;20557;-83
2023/01/05 09:25:37;;;;;;;3.20;1.27;;;;;;;10.55;79.11;101462.53;5134954;28;20037;-83
2023/01/05 09:28:08;;;;;;;12.18;1.77;;;;;;;10.52;78.97;101463.47;5125425;28;20716;-83
2023/01/05 09:30:38;;;;;;;1.70;1.27;;;;;;;10.46;79.50;101465.31;5135720;28;20019;-83
2023/01/05 09:33:09;;;;;;;0.88;0.85;;;;;;;10.50;79.28;101473.09;5114191;28;20070;-83
2023/01/05 09:35:39;;;;;;;3.85;1.98;;;;;;;10.52;79.00;101470.47;5136306;28;20110;-83
2023/01/05 09:38:12;;;;;;;0.40;0.40;;;;;;;10.55;79.56;101478.28;5131455;28;20049;-83
2023/01/05 09:40:43;;;;;;;0.85;0.85;;;;;;;10.54;78.94;101476.56;5129706;28;20402;-83
2023/01/05 09:43:24;;;;;;;0.85;0.80;;;;;;;10.58;79.05;101485.28;5136012;28;20089;-83
2023/01/05 09:45:56;;;;;;;0.30;0.30;;;;;;;10.54;78.64;101490.56;5139546;28;20027;-82
2023/01/05 09:48:37;;;;;;;0.82;0.82;;;;;;;10.57;79.21;101489.63;5117130;28;20050;-82
2023/01/05 09:51:09;;;;;;;2.92;1.40;;;;;;;10.62;78.66;101500.06;5129860;28;21794;-82
2023/01/05 09:53:40;;;;;;;0.25;0.25;;;;;;;10.62;78.93;101498.28;5120729;28;20043;-81
2023/01/05 09:56:39;;;;;;;0.30;0.30;;;;;;;10.69;78.62;101509.59;5136008;28;20034;-82
2023/01/05 09:59:32;;;;;;;0.65;0.65;;;;;;;10.69;78.61;101512.22;5135556;28;20057;-82
2023/01/05 10:02:13;;;;;;;5.20;1.63;;;;;;;10.73;78.66;101511.28;5134985;28;20506;-82
2023/01/05 10:04:45;;;;;;;2.50;2.30;;;;;;;10.77;78.33;101517.34;5137900;28;20077;-82
2023/01/05 10:07:24;;;;;;;1.27;1.17;;;;;;;10.73;77.92;101502.53;5158417;28;20030;-82
2023/01/05 10:09:59;;;;;;;0.93;0.93;;;;;;;10.72;77.86;101512.16;5143582;28;20058;-82
2023/01/05 10:13:05;;;;;;;0.50;0.50;;;;;;;10.71;78.05;101498.16;5116760;28;20043;-82
2023/01/05 10:15:41;;;;;;;9.15;1.98;;;;;;;10.78;78.07;101509.44;5124609;28;20222;-82
2023/01/05 10:18:16;;;;;;;1.35;1.30;;;;;;;10.77;78.00;101512.09;5157294;28;20043;-82
2023/01/05 10:20:55;;;;;;;12.95;1.00;;;;;;;10.78;77.77;101514.69;5138902;28;20034;-82
2023/01/05 10:23:39;;;;;;;0.30;0.30;;;;;;;10.77;77.49;101517.34;5117557;28;20047;-83
2023/01/05 10:26:20;;;;;;;1.40;1.02;;;;;;;10.76;77.92;101526.97;5131621;28;20050;-82
2023/01/05 10:28:59;;;;;;;2.05;1.90;;;;;;;10.81;77.44;101513.78;5117760;28;20047;-82
2023/01/05 10:31:51;;;;;;;0.55;0.55;;;;;;;10.83;77.43;101528.59;5132388;28;20426;-82
2023/01/05 10:35:01;;;;;;;11.88;2.05;;;;;;;10.94;77.45;101524.97;5121865;28;20062;-83
2023/01/05 10:37:55;;;;;;;2.60;2.40;;;;;;;10.87;77.66;101526.81;5126297;28;20550;-83
2023/01/05 10:40:39;;;;;;;1.08;1.08;;;;;;;10.95;77.37;101526.69;5146877;28;20170;-83
2023/01/05 10:43:18;;;;;;;;;;;;;;;10.90;77.28;101536.41;5133882;28;20046;-83
2023/01/05 10:45:49;;;;;;;1.15;1.15;;;;;;;10.92;77.58;101532.88;5140511;28;19925;-83
2023/01/05 10:48:27;;;;;;;2.50;2.33;;;;;;;10.96;76.82;101533.69;5137477;28;20039;-83
2023/01/05 10:51:02;;;;;;;2.15;0.98;;;;;;;10.94;76.94;101536.34;5157412;28;20041;-83
2023/01/05 10:53:36;;;;;;;0.55;0.55;;;;;;;10.94;76.01;101544.22;5122217;28;20043;-83
2023/01/05 10:56:29;;;;;;;3.75;1.92;;;;;;;10.99;75.99;101539.75;5131579;28;20645;-82
2023/01/05 10:59:14;;;;;;;6.03;2.13;;;;;;;10.95;75.82;101537.19;5154388;28;20039;-83
2023/01/05 11:01:50;;;;;;;0.90;0.90;;;;;;;10.92;75.92;101548.63;5167580;28;20050;-83
2023/01/05 11:04:25;;;;;;;3.60;2.03;;;;;;;10.90;75.77;101545.16;5142807;28;20313;-83
2023/01/05 11:07:08;;;;;;;1.25;1.15;;;;;;;10.95;76.20;101545.06;5153758;28;20114;-82
2023/01/05 11:09:47;;;;;;;0.38;0.38;;;;;;;10.96;75.71;101538.94;5133392;28;20062;-85
2023/01/05 11:12:28;;;;;;;0.90;0.63;;;;;;;10.98;76.36;101547.66;5123022;28;20023;-84
2023/01/05 11:15:02;;;;;;;1.27;0.60;;;;;;;10.94;76.28;101541.59;5139657;28;20130;-83
2023/01/05 11:17:37;;;;;;;0.40;0.40;;;;;;;10.96;76.17;101534.53;5132057;28;20300;-84
2023/01/05 11:20:15;;;;;;;1.25;1.25;;;;;;;10.96;75.30;101545.03;5121214;28;20478;-83
2023/01/05 11:22:48;;;;;;;1.40;1.30;;;;;;;11.02;75.43;101544.97;5146107;28;20042;-85
2023/01/05 11:25:30;;;;;;;0.40;0.40;;;;;;;11.02;75.71;101542.34;5140676;28;20496;-85
2023/01/05 11:28:19;;;;;;;2.20;1.52;;;;;;;11.05;75.35;101553.66;5140890;28;20046;-85
2023/01/05 11:31:16;;;;;;;1.02;1.02;;;;;;;11.04;75.28;101552.81;5135800;28;20042;-85
2023/01/05 11:33:57;;;;;;;0.50;0.50;;;;;;;11.05;75.99;101544.06;5115177;28;20043;-84
2023/01/05 11:36:34;;;;;;;0.73;0.73;;;;;;;11.12;75.99;101552.69;5142565;28;20101;-85
2023/01/05 11:39:25;;;;;;;4.07;1.38;;;;;;;11.03;75.19;101551.94;5109870;28;20049;-86
2023/01/05 11:42:12;;;;;;;4.30;2.28;;;;;;;11.08;75.07;101541.34;5142777;28;20031;-84
2023/01/05 11:44:50;;;;;;;0.63;0.63;;;;;;;11.14;75.21;101548.28;5127738;28;20043;-84
2023/01/05 11:47:34;;;;;;;8.68;0.52;;;;;;;11.16;75.08;101541.25;5139748;28;20041;-84
2023/01/05 11:50:17;;;;;;;1.27;1.00;;;;;;;11.25;75.08;101551.59;5133319;28;20041;-85
2023/01/05 11:53:01;;;;;;;0.40;0.40;;;;;;;11.22;75.38;101551.63;5128631;28;20086;-84
2023/01/05 11:55:39;;;;;;;0.68;0.68;;;;;;;11.28;74.71;101546.28;5162497;28;20044;-86
2023/01/05 11:58:20;;;;;;;2.22;1.98;;;;;;;11.34;75.03;101551.44;5119568;28;20045;-85
2023/01/05 12:00:56;;;;;;;0.25;0.25;;;;;;;11.40;75.02;101549.59;5150285;28;20046;-87
2023/01/05 12:04:03;;;;;;;0.30;0.30;;;;;;;11.34;74.69;101540.94;5135615;28;20125;-85
2023/01/05 12:06:49;;;;;;;1.65;1.33;;;;;;;11.37;74.50;101539.13;5080268;29;20062;-85
2023/01/05 12:09:30;;;;;;;;;;;;;;;11.35;74.01;101536.53;5123996;28;20106;-85
2023/01/05 12:12:18;;;;;;;2.00;1.90;;;;;;;11.40;73.71;101539.09;5129306;28;20030;-85
2023/01/05 12:15:06;;;;;;;1.20;1.10;;;;;;;11.37;73.75;101544.38;5143335;28;20057;-85
2023/01/05 12:18:02;;;;;;;0.38;0.30;;;;;;;11.42;73.77;101543.41;5129063;28;20461;-83
2023/01/05 12:20:55;;;;;;;2.75;1.25;;;;;;;11.41;73.40;101540.81;5132941;28;20027;-84
2023/01/05 12:23:41;;;;;;;14.10;1.27;;;;;;;11.38;72.64;101540.88;5158982;28;20041;-87
2023/01/05 12:26:24;;;;;;;0.80;0.73;;;;;;;11.47;72.79;101536.34;5124147;28;20401;-86
2023/01/05 12:28:58;;;;;;;0.28;0.28;;;;;;;11.47;72.52;101536.34;5147651;28;20073;-86
2023/01/05 12:31:44;;;;;;;1.75;0.95;;;;;;;11.51;72.64;101529.25;5124939;28;20027;-85
2023/01/05 12:34:25;;;;;;;4.10;0.30;;;;;;;11.60;72.17;101537.00;5142789;28;20035;-85
2023/01/05 12:37:18;;;;;;;0.63;0.63;;;;;;;11.61;71.70;101536.06;5153104;28;20019;-82
2023/01/05 12:39:51;;;;;;;1.80;0.80;;;;;;;11.63;71.42;101539.53;5124603;28;20104;-84